Terminal Aerodrome Forecast
Issued by NWS Springfield, MO

Home | Current Version | Previous Version | Text Only | Print | Product List | Glossary On
Versions: 1 2 3 4 5 6 7 8 9 10 11 12 13 14 15 16 17 18 19 20 21 22 23 24 25 26
963
FTUS43 KSGF 222320
TAFSGF
TAF
KSGF 222320Z 2300/2324 34017G24KT 6SM -RA BKN009 OVC015
     FM230200 33013KT P6SM OVC007
     FM231500 32006KT P6SM SCT015 BKN250=

USA.gov is the U.S. government's official web portal to all federal, state and local government web resources and services.